createdAt,value
2022-12-19T00:02:45.893Z,101446.72
2022-12-19T00:05:53.279Z,101453.72
2022-12-19T00:08:59.131Z,101456.19
2022-12-19T00:12:02.892Z,101459.56
2022-12-19T00:15:07.641Z,101461.16
2022-12-19T00:18:11.307Z,101459.56
2022-12-19T00:21:18.262Z,101473.84
2022-12-19T00:24:21.966Z,101476.31
2022-12-19T00:27:25.728Z,101475.72
2022-12-19T00:30:29.510Z,101469.13
2022-12-19T00:33:33.828Z,101472.22
2022-12-19T00:36:40.998Z,101485.69
2022-12-19T00:39:44.501Z,101486.53
2022-12-19T00:42:53.696Z,101490.59
2022-12-19T00:45:57.933Z,101492.97
2022-12-19T00:49:02.370Z,101483.16
2022-12-19T00:52:08.720Z,101481.06
2022-12-19T00:55:19.053Z,101484.91
2022-12-19T00:58:24.033Z,101488.03
2022-12-19T01:01:30.698Z,101496.50
2022-12-19T01:04:41.086Z,101484.53
2022-12-19T01:07:50.621Z,101493.75
2022-12-19T01:10:54.501Z,101494.81
2022-12-19T01:13:58.320Z,101495.56
2022-12-19T01:17:02.434Z,101490.03
2022-12-19T01:20:07.411Z,101480.50
2022-12-19T01:23:16.014Z,101493.41
2022-12-19T01:26:19.905Z,101485.78
2022-12-19T01:29:24.374Z,101494.94
2022-12-19T01:32:28.291Z,101485.28
2022-12-19T01:35:31.989Z,101478.28
2022-12-19T01:38:38.173Z,101486.13
2022-12-19T01:41:42.067Z,101494.41
2022-12-19T01:45:06.072Z,101492.19
2022-12-19T01:48:17.835Z,101486.75
2022-12-19T01:51:24.675Z,101500.41
2022-12-19T01:54:33.839Z,101489.47
2022-12-19T01:57:38.599Z,101499.28
2022-12-19T02:00:44.906Z,101497.91
2022-12-19T02:03:50.091Z,101495.56
2022-12-19T02:06:57.394Z,101498.88
2022-12-19T02:10:03.150Z,101504.19
2022-12-19T02:13:12.848Z,101506.94
2022-12-19T02:16:30.079Z,101496.97
2022-12-19T02:20:20.247Z,101504.06
2022-12-19T02:23:56.021Z,101510.09
2022-12-19T02:27:22.200Z,101518.78
2022-12-19T02:30:55.223Z,101518.72
2022-12-19T02:34:10.404Z,101522.09
2022-12-19T02:37:25.106Z,101520.53
2022-12-19T02:40:34.714Z,101521.88
2022-12-19T02:43:42.924Z,101525.13
2022-12-19T02:46:50.925Z,101525.00
2022-12-19T02:49:54.765Z,101520.03
2022-12-19T02:52:58.529Z,101539.66
2022-12-19T02:56:23.524Z,101532.38
2022-12-19T02:59:55.761Z,101534.13
2022-12-19T03:03:12.397Z,101542.38
2022-12-19T03:06:26.394Z,101554.84
2022-12-19T03:09:40.304Z,101550.53
2022-12-19T03:12:51.511Z,101554.44
2022-12-19T03:15:55.549Z,101546.28
2022-12-19T03:19:00.991Z,101554.47
2022-12-19T03:22:04.654Z,101554.53
2022-12-19T03:25:09.413Z,101564.78
2022-12-19T03:28:17.680Z,101559.50
2022-12-19T03:31:24.880Z,101569.63
2022-12-19T03:34:33.115Z,101571.75
2022-12-19T03:37:40.169Z,101575.75
2022-12-19T03:40:47.308Z,101586.03
2022-12-19T03:43:50.108Z,101584.09
2022-12-19T03:47:02.448Z,101594.75
2022-12-19T03:50:09.890Z,101607.75
2022-12-19T03:53:26.582Z,101595.50
2022-12-19T03:56:41.329Z,101600.94
2022-12-19T03:59:47.992Z,101607.50
2022-12-19T04:02:54.389Z,101605.94
2022-12-19T04:06:01.543Z,101603.25
2022-12-19T04:09:05.842Z,101613.19
2022-12-19T04:12:15.160Z,101605.41
2022-12-19T04:15:19.613Z,101598.34
2022-12-19T04:18:24.526Z,101594.50
2022-12-19T04:21:34.318Z,101608.31
2022-12-19T04:24:42.345Z,101601.06
2022-12-19T04:27:52.593Z,101601.72
2022-12-19T04:30:56.516Z,101601.13
2022-12-19T04:34:00.366Z,101601.16
2022-12-19T04:37:05.894Z,101608.25
2022-12-19T04:40:11.323Z,101605.41
2022-12-19T04:43:14.989Z,101607.38
2022-12-19T04:46:18.596Z,101611.13
2022-12-19T04:49:22.230Z,101612.31
2022-12-19T04:52:27.546Z,101616.13
2022-12-19T04:55:31.282Z,101617.09
2022-12-19T04:58:35.213Z,101627.75
2022-12-19T05:01:38.857Z,101621.31
2022-12-19T05:04:42.613Z,101622.72
2022-12-19T05:07:48.340Z,101631.63
2022-12-19T05:10:51.989Z,101640.41
2022-12-19T05:13:55.590Z,101641.09
2022-12-19T05:17:01.533Z,101649.47
2022-12-19T05:20:07.214Z,101652.22
2022-12-19T05:23:17.304Z,101657.09
2022-12-19T05:26:21.549Z,101665.03
2022-12-19T05:29:25.512Z,101660.53
2022-12-19T05:32:32.552Z,101666.63
2022-12-19T05:35:36.363Z,101663.13
2022-12-19T05:38:41.659Z,101676.34
2022-12-19T05:41:48.830Z,101661.56
2022-12-19T05:44:53.041Z,101659.50
2022-12-19T05:48:01.079Z,101666.22
2022-12-19T05:51:05.367Z,101676.47
2022-12-19T05:54:10.436Z,101674.50
2022-12-19T05:57:14.185Z,101673.63
2022-12-19T06:00:18.598Z,101675.19
2022-12-19T06:03:22.732Z,101673.34
2022-12-19T06:06:28.407Z,101673.22
2022-12-19T06:09:34.343Z,101680.28
2022-12-19T06:12:38.408Z,101681.94
2022-12-19T06:15:42.290Z,101693.97
2022-12-19T06:18:47.700Z,101691.00
2022-12-19T06:21:52.009Z,101706.09
2022-12-19T06:24:57.305Z,101710.97
2022-12-19T06:28:01.105Z,101708.56
2022-12-19T06:31:07.283Z,101709.59
2022-12-19T06:34:22.095Z,101715.66
2022-12-19T06:37:39.339Z,101721.72
2022-12-19T06:41:03.870Z,101717.44
2022-12-19T06:44:09.546Z,101726.16
2022-12-19T06:47:14.443Z,101728.41
2022-12-19T06:50:18.454Z,101729.25
2022-12-19T06:53:22.605Z,101735.13
2022-12-19T06:56:28.498Z,101744.94
2022-12-19T06:59:32.342Z,101746.22
2022-12-19T07:02:36.396Z,101746.03
2022-12-19T07:05:41.416Z,101742.69
2022-12-19T07:08:45.373Z,101742.47
2022-12-19T07:11:50.594Z,101747.13
2022-12-19T07:14:54.528Z,101751.63
2022-12-19T07:17:59.198Z,101757.09
2022-12-19T07:21:03.694Z,101763.50
2022-12-19T07:24:11.652Z,101769.06
2022-12-19T07:27:16.901Z,101761.75
2022-12-19T07:30:20.909Z,101772.13
2022-12-19T07:33:24.593Z,101774.41
2022-12-19T07:36:28.445Z,101782.88
2022-12-19T07:39:32.334Z,101777.59
2022-12-19T07:42:37.600Z,101773.47
2022-12-19T07:45:41.766Z,101791.38
2022-12-19T07:48:45.746Z,101787.16
2022-12-19T07:51:50.018Z,101791.44
2022-12-19T07:54:53.907Z,101792.28
2022-12-19T07:57:59.210Z,101795.78
2022-12-19T08:01:03.890Z,101797.22
2022-12-19T08:04:07.713Z,101798.03
2022-12-19T08:07:13.070Z,101811.66
2022-12-19T08:10:16.892Z,101808.63
2022-12-19T08:13:22.274Z,101823.75
2022-12-19T08:16:29.172Z,101824.19
2022-12-19T08:19:33.168Z,101821.09
2022-12-19T08:22:37.261Z,101829.78
2022-12-19T08:25:41.111Z,101814.31
2022-12-19T08:28:48.421Z,101817.97
2022-12-19T08:31:52.267Z,101820.31
2022-12-19T08:34:56.928Z,101818.41
2022-12-19T08:38:00.719Z,101826.16
2022-12-19T08:41:05.206Z,101829.22
2022-12-19T08:44:12.990Z,101830.78
2022-12-19T08:47:18.171Z,101833.91
2022-12-19T08:50:22.160Z,101837.25
2022-12-19T08:53:26.953Z,101841.25
2022-12-19T08:56:31.215Z,101831.47
2022-12-19T08:59:36.516Z,101829.53
2022-12-19T09:02:41.310Z,101822.19
2022-12-19T09:06:03.977Z,101824.13
2022-12-19T09:09:09.401Z,101837.97
2022-12-19T09:12:14.464Z,101828.19
2022-12-19T09:15:19.925Z,101832.50
2022-12-19T09:18:24.366Z,101829.66
2022-12-19T09:21:30.680Z,101820.50
2022-12-19T09:24:34.589Z,101825.06
2022-12-19T09:28:01.255Z,101819.25
2022-12-19T09:31:05.760Z,101829.81
2022-12-19T09:34:09.984Z,101817.41
2022-12-19T09:37:16.800Z,101819.53
2022-12-19T09:40:21.641Z,101809.16
2022-12-19T09:43:41.571Z,101813.94
2022-12-19T09:46:52.015Z,101811.03
2022-12-19T09:49:55.976Z,101805.91
2022-12-19T09:53:04.851Z,101798.00
2022-12-19T09:56:16.374Z,101792.56
2022-12-19T09:59:37.107Z,101796.25
2022-12-19T10:02:51.677Z,101802.78
2022-12-19T10:06:56.228Z,101800.31
2022-12-19T10:11:52.489Z,101787.41
2022-12-19T10:13:14.662Z,101786.56
2022-12-19T10:16:33.287Z,101771.13
2022-12-19T10:19:47.806Z,101771.19
2022-12-19T10:23:03.037Z,101767.16
2022-12-19T10:26:12.464Z,101755.50
2022-12-19T10:30:01.936Z,101750.22
2022-12-19T10:33:20.727Z,101752.47
2022-12-19T10:36:55.907Z,101760.97
2022-12-19T10:39:58.218Z,101756.72
2022-12-19T10:43:10.483Z,101744.28
2022-12-19T10:46:19.669Z,101736.59
2022-12-19T10:49:25.005Z,101736.72
2022-12-19T10:52:53.682Z,101734.06
2022-12-19T10:56:03.149Z,101743.94
2022-12-19T10:59:17.935Z,101732.75
2022-12-19T11:02:34.477Z,101740.69
2022-12-19T11:05:45.123Z,101736.50
2022-12-19T11:08:52.945Z,101731.94
2022-12-19T11:16:12.313Z,101733.22
2022-12-19T11:21:27.046Z,101735.25
2022-12-19T11:27:04.339Z,101730.84
2022-12-19T11:29:37.682Z,101738.41
2022-12-19T11:30:47.827Z,101723.97
2022-12-19T11:32:49.179Z,101712.78
2022-12-19T11:35:56.785Z,101719.06
2022-12-19T11:39:01.307Z,101713.50
2022-12-19T11:42:14.007Z,101709.88
2022-12-19T11:45:22.306Z,101716.53
2022-12-19T11:48:36.413Z,101707.94
2022-12-19T11:51:49.906Z,101708.84
2022-12-19T11:55:00.864Z,101709.63
2022-12-19T11:58:06.137Z,101708.69
2022-12-19T12:01:22.087Z,101706.41
2022-12-19T12:04:51.641Z,101712.09
2022-12-19T12:08:49.414Z,101711.97
2022-12-19T12:18:29.839Z,101708.41
2022-12-19T12:29:21.164Z,101707.28
2022-12-19T12:31:07.208Z,101717.50
2022-12-19T12:31:45.376Z,101711.38
2022-12-19T12:31:50.447Z,101719.06
2022-12-19T12:31:58.823Z,101706.75
2022-12-19T12:35:45.381Z,101716.34
2022-12-19T12:40:45.921Z,101720.75
2022-12-19T12:44:08.039Z,101728.97
2022-12-19T12:47:19.346Z,101728.75
2022-12-19T12:50:26.732Z,101726.06
2022-12-19T12:53:35.837Z,101725.22
2022-12-19T12:56:41.202Z,101731.50
2022-12-19T12:59:47.766Z,101737.28
2022-12-19T13:02:56.777Z,101739.75
2022-12-19T13:06:22.692Z,101737.28
2022-12-19T13:09:29.544Z,101741.94
2022-12-19T13:12:50.938Z,101750.97
2022-12-19T13:15:54.894Z,101752.97
2022-12-19T13:19:06.245Z,101754.69
2022-12-19T13:22:23.349Z,101757.00
2022-12-19T13:25:54.847Z,101768.53
2022-12-19T13:29:28.048Z,101764.88
2022-12-19T13:32:55.197Z,101765.34
2022-12-19T13:39:42.319Z,101759.50
2022-12-19T13:39:56.172Z,101765.34
2022-12-19T13:43:22.254Z,101766.31
2022-12-19T13:46:38.412Z,101763.97
2022-12-19T13:49:42.668Z,101769.72
2022-12-19T13:52:51.089Z,101764.09
2022-12-19T13:56:00.528Z,101770.59
2022-12-19T13:59:07.407Z,101767.25
2022-12-19T14:02:22.783Z,101762.81
2022-12-19T14:06:09.660Z,101771.13
2022-12-19T14:11:26.683Z,101770.72
2022-12-19T14:13:47.550Z,101772.53
2022-12-19T14:16:17.206Z,101774.03
2022-12-19T14:19:24.964Z,101765.94
2022-12-19T14:22:28.725Z,101774.03
2022-12-19T14:28:16.743Z,101777.47
2022-12-19T14:29:08.404Z,101782.59
2022-12-19T14:33:39.246Z,101781.88
2022-12-19T14:36:06.966Z,101777.34
2022-12-19T14:39:24.703Z,101770.97
2022-12-19T14:43:30.234Z,101779.75
2022-12-19T14:51:51.709Z,101776.63
2022-12-19T14:54:05.763Z,101785.38
2022-12-19T14:54:40.049Z,101792.91
2022-12-19T14:56:59.322Z,101805.00
2022-12-19T15:01:07.304Z,101799.09
2022-12-19T15:04:50.973Z,101818.69
2022-12-19T15:07:23.439Z,101821.09
2022-12-19T15:11:08.479Z,101813.03
2022-12-19T15:14:51.285Z,101802.81
2022-12-19T15:17:22.963Z,101801.94
2022-12-19T15:20:28.241Z,101810.63
2022-12-19T15:23:33.157Z,101799.75
2022-12-19T15:26:47.575Z,101791.91
2022-12-19T15:29:51.808Z,101788.63
2022-12-19T15:32:55.814Z,101792.91
2022-12-19T15:36:01.623Z,101796.44
2022-12-19T15:39:05.697Z,101788.97
2022-12-19T15:42:19.188Z,101798.03
2022-12-19T15:45:22.964Z,101797.13
2022-12-19T15:48:27.811Z,101790.72
2022-12-19T15:51:33.155Z,101791.97
2022-12-19T15:54:52.284Z,101791.03
2022-12-19T15:57:59.381Z,101795.06
2022-12-19T16:01:05.405Z,101794.47
2022-12-19T16:04:14.793Z,101791.22
2022-12-19T16:07:22.021Z,101800.91
2022-12-19T16:10:26.965Z,101807.13
2022-12-19T16:13:32.556Z,101805.31
2022-12-19T16:16:36.406Z,101811.84
2022-12-19T16:19:41.465Z,101810.75
2022-12-19T16:22:46.916Z,101814.97
2022-12-19T16:25:52.562Z,101806.88
2022-12-19T16:28:56.687Z,101813.50
2022-12-19T16:32:01.982Z,101812.50
2022-12-19T16:35:17.464Z,101816.34
2022-12-19T16:38:29.154Z,101820.03
2022-12-19T16:41:33.208Z,101816.06
2022-12-19T16:44:48.527Z,101821.25
2022-12-19T16:47:53.239Z,101829.69
2022-12-19T16:50:58.699Z,101816.94
2022-12-19T16:54:04.073Z,101821.53
2022-12-19T16:57:16.269Z,101814.84
2022-12-19T17:00:22.028Z,101818.94
2022-12-19T17:03:31.407Z,101825.19
2022-12-19T17:06:35.347Z,101829.59
2022-12-19T17:09:40.620Z,101823.50
2022-12-19T17:12:45.957Z,101824.97
2022-12-19T17:15:56.426Z,101835.53
2022-12-19T17:19:01.169Z,101830.59
2022-12-19T17:22:05.658Z,101837.63
2022-12-19T17:25:18.225Z,101846.59
2022-12-19T17:28:22.227Z,101845.91
2022-12-19T17:31:29.677Z,101836.88
2022-12-19T17:34:35.298Z,101843.28
2022-12-19T17:37:39.228Z,101842.53
2022-12-19T17:40:45.904Z,101845.84
2022-12-19T17:43:49.686Z,101844.25
2022-12-19T17:46:53.882Z,101847.22
2022-12-19T17:49:57.923Z,101856.34
2022-12-19T17:53:01.710Z,101850.88
2022-12-19T17:56:07.445Z,101848.38
2022-12-19T17:59:11.192Z,101842.13
2022-12-19T18:02:25.936Z,101854.25
2022-12-19T18:05:33.502Z,101856.66
2022-12-19T18:08:37.439Z,101848.91
2022-12-19T18:11:42.773Z,101849.88
2022-12-19T18:14:46.649Z,101851.94
2022-12-19T18:17:53.365Z,101850.25
2022-12-19T18:20:58.614Z,101848.38
2022-12-19T18:24:02.623Z,101846.47
2022-12-19T18:27:07.978Z,101850.81
2022-12-19T18:30:14.956Z,101857.81
2022-12-19T18:33:22.896Z,101850.44
2022-12-19T18:36:28.017Z,101847.97
2022-12-19T18:39:33.847Z,101859.25
2022-12-19T18:42:39.113Z,101853.25
2022-12-19T18:45:47.393Z,101861.72
2022-12-19T18:48:51.334Z,101861.63
2022-12-19T18:51:55.756Z,101860.75
2022-12-19T18:54:59.595Z,101855.00
2022-12-19T18:58:04.836Z,101858.94
2022-12-19T19:01:14.358Z,101870.34
2022-12-19T19:04:18.909Z,101865.16
2022-12-19T19:07:22.780Z,101858.03
2022-12-19T19:10:28.861Z,101869.00
2022-12-19T19:13:43.643Z,101868.22
2022-12-19T19:16:47.569Z,101876.91
2022-12-19T19:19:51.522Z,101870.22
2022-12-19T19:22:55.663Z,101868.38
2022-12-19T19:25:59.575Z,101871.81
2022-12-19T19:29:05.022Z,101871.72
2022-12-19T19:32:09.136Z,101881.47
2022-12-19T19:35:17.184Z,101876.94
2022-12-19T19:38:23.046Z,101879.28
2022-12-19T19:41:30.136Z,101882.41
2022-12-19T19:44:35.605Z,101877.09
2022-12-19T19:47:39.512Z,101870.97
2022-12-19T19:50:43.435Z,101871.72
2022-12-19T19:53:47.426Z,101866.47
2022-12-19T19:56:51.207Z,101870.09
2022-12-19T19:59:56.484Z,101871.44
2022-12-19T20:03:06.298Z,101865.59
2022-12-19T20:06:12.874Z,101880.09
2022-12-19T20:09:17.008Z,101873.78
2022-12-19T20:12:20.959Z,101878.69
2022-12-19T20:15:26.367Z,101884.13
2022-12-19T20:18:30.577Z,101878.34
2022-12-19T20:21:34.420Z,101883.13
2022-12-19T20:24:38.126Z,101885.81
2022-12-19T20:27:42.092Z,101880.47
2022-12-19T20:30:47.579Z,101890.47
2022-12-19T20:33:53.333Z,101892.81
2022-12-19T20:36:57.333Z,101898.47
2022-12-19T20:40:01.151Z,101889.88
2022-12-19T20:43:04.954Z,101890.31
2022-12-19T20:46:13.115Z,101897.56
2022-12-19T20:49:17.192Z,101896.16
2022-12-19T20:52:21.044Z,101888.78
2022-12-19T20:55:24.927Z,101898.06
2022-12-19T20:58:29.437Z,101905.78
2022-12-19T21:01:35.211Z,101902.19
2022-12-19T21:04:39.220Z,101891.34
2022-12-19T21:07:43.317Z,101897.88
2022-12-19T21:10:47.197Z,101896.47
2022-12-19T21:13:51.263Z,101900.78
2022-12-19T21:16:56.584Z,101893.94
2022-12-19T21:20:00.364Z,101898.25
2022-12-19T21:23:04.285Z,101889.78
2022-12-19T21:26:08.303Z,101888.47
2022-12-19T21:29:12.242Z,101894.50
2022-12-19T21:32:19.160Z,101882.75
2022-12-19T21:35:23.614Z,101883.16
2022-12-19T21:38:27.403Z,101891.56
2022-12-19T21:41:31.622Z,101883.06
2022-12-19T21:44:35.317Z,101869.66
2022-12-19T21:47:42.288Z,101875.72
2022-12-19T21:50:46.263Z,101881.22
2022-12-19T21:53:54.483Z,101880.97
2022-12-19T21:56:58.403Z,101875.44
2022-12-19T22:00:02.227Z,101876.66
2022-12-19T22:03:15.254Z,101877.56
2022-12-19T22:06:27.284Z,101872.44
2022-12-19T22:09:32.093Z,101880.75
2022-12-19T22:12:35.799Z,101880.50
2022-12-19T22:15:40.355Z,101868.16
2022-12-19T22:18:46.213Z,101873.69
2022-12-19T22:21:50.086Z,101864.28
2022-12-19T22:24:53.895Z,101867.97
2022-12-19T22:27:58.148Z,101873.44
2022-12-19T22:31:02.225Z,101854.28
2022-12-19T22:34:09.676Z,101847.69
2022-12-19T22:37:13.529Z,101847.78
2022-12-19T22:40:17.675Z,101844.50
2022-12-19T22:43:21.781Z,101840.25
2022-12-19T22:46:27.774Z,101852.25
2022-12-19T22:49:33.064Z,101838.97
2022-12-19T22:52:37.143Z,101842.03
2022-12-19T22:55:41.043Z,101841.50
2022-12-19T22:58:47.479Z,101832.28
2022-12-19T23:01:51.559Z,101827.94
2022-12-19T23:04:57.004Z,101833.25
2022-12-19T23:08:01.086Z,101821.59
2022-12-19T23:11:05.681Z,101833.75
2022-12-19T23:14:13.497Z,101822.41
2022-12-19T23:17:17.698Z,101828.84
2022-12-19T23:20:22.957Z,101841.44
2022-12-19T23:23:26.859Z,101827.31
2022-12-19T23:26:32.398Z,101839.25
2022-12-19T23:29:37.452Z,101843.97
2022-12-19T23:32:47.054Z,101847.44
2022-12-19T23:35:55.763Z,101851.88
2022-12-19T23:38:59.642Z,101857.13
2022-12-19T23:42:03.612Z,101852.81
2022-12-19T23:45:08.687Z,101850.63
2022-12-19T23:48:12.493Z,101850.28
2022-12-19T23:51:20.357Z,101851.81
2022-12-19T23:54:24.167Z,101846.09
2022-12-19T23:57:28.016Z,101853.25
